Itans, Brazil
Current Conditions -  °F | °C
As of 4:00 PM on Saturday 25 Oct 2014 (Local Time) from SBFZ Reporting Station
Clear Clear  
Wind Chill: 82°   Ceiling: Unl
Heat Index: 85°   Visibility: 6mi
Dew Point: 66°   Wind: 12mph
Humidity: 58%   Direction: 110°ESE
Pressure: 29.83"   Gusts: NA
Location:  4.61°S, 38.89°W
Report Text: SBFZ 251900Z 11010KT CAVOK 28/19 Q1010
Loading
Personal Weather Stations






























Interactive Weather Map
Tropical Storm Tracking
New forecast layout! Learn more

10-Day Weather Forecast

Advertisements
Track Severe Weather on mobile